ENT4029 EPWA-DTNH
Flight info
| Callsign | ENT4029 |
|---|---|
| Flight time | 2h 59m |
| Altitude | 36000 |
| Route | EVINA DCT NAVUR N744 TUSIN DCT MIKOV DCT INSAX DCT PETOV DCT XAMIT/N0451F370 DCT PININ DCT TUNEX UM738 CBN/N0387F230 G727 ATLEL ATLEL1V |
| Aircraft | B738/M-SDFGHIJ1RWXY/EB1 |
Departure
| Time | 2026-05-07 11:22 |
|---|---|
| Airport | Warsaw Chopin Airport (EPWA) |
Arrival
| Time | 2026-05-07 14:22 |
|---|---|
| Airport | Enfidha - Hammamet International Airport (DTNH) |
| Time | Latitude | Longitude | Altitude | Speed | Heading |
|---|---|---|---|---|---|
| 2026-05-07 10:53 | 52.17708 | 20.96766 | 338 ft | 0 kts | 237° |
| 2026-05-07 11:12 | 52.17709 | 20.96768 | 338 ft | 2 kts | 237° |
| 2026-05-07 11:12 | 52.17721 | 20.96798 | 335 ft | 4 kts | 230° |
| 2026-05-07 11:13 | 52.17740 | 20.96815 | 333 ft | 4 kts | 173° |
| 2026-05-07 11:13 | 52.17764 | 20.96802 | 335 ft | 3 kts | 148° |
| 2026-05-07 11:13 | 52.17767 | 20.96799 | 334 ft | 1 kts | 147° |
| 2026-05-07 11:17 | 52.17757 | 20.96810 | 334 ft | 6 kts | 147° |
| 2026-05-07 11:17 | 52.17694 | 20.96876 | 336 ft | 15 kts | 147° |
| 2026-05-07 11:17 | 52.17610 | 20.96846 | 338 ft | 14 kts | 236° |
| 2026-05-07 11:17 | 52.17558 | 20.96710 | 336 ft | 14 kts | 239° |
| 2026-05-07 11:18 | 52.17496 | 20.96565 | 338 ft | 18 kts | 224° |
| 2026-05-07 11:18 | 52.17411 | 20.96397 | 337 ft | 20 kts | 191° |
| 2026-05-07 11:18 | 52.17286 | 20.96488 | 338 ft | 20 kts | 152° |
| 2026-05-07 11:18 | 52.17167 | 20.96592 | 335 ft | 19 kts | 152° |
| 2026-05-07 11:19 | 52.17052 | 20.96693 | 337 ft | 18 kts | 152° |
| 2026-05-07 11:19 | 52.16954 | 20.96779 | 336 ft | 16 kts | 152° |
| 2026-05-07 11:19 | 52.16861 | 20.96858 | 334 ft | 15 kts | 152° |
| 2026-05-07 11:19 | 52.16766 | 20.96941 | 334 ft | 17 kts | 152° |
| 2026-05-07 11:20 | 52.16655 | 20.97084 | 333 ft | 24 kts | 114° |
| 2026-05-07 11:20 | 52.16574 | 20.97371 | 335 ft | 30 kts | 115° |
| 2026-05-07 11:20 | 52.16491 | 20.97667 | 335 ft | 28 kts | 114° |
| 2026-05-07 11:20 | 52.16412 | 20.97949 | 334 ft | 26 kts | 114° |
| 2026-05-07 11:21 | 52.16338 | 20.98212 | 336 ft | 25 kts | 114° |
| 2026-05-07 11:21 | 52.16268 | 20.98447 | 336 ft | 19 kts | 130° |
| 2026-05-07 11:21 | 52.16149 | 20.98410 | 337 ft | 16 kts | 205° |
| 2026-05-07 11:21 | 52.16140 | 20.98261 | 337 ft | 15 kts | 295° |
| 2026-05-07 11:22 | 52.16249 | 20.97874 | 336 ft | 71 kts | 295° |
| 2026-05-07 11:22 | 52.16541 | 20.96828 | 335 ft | 132 kts | 294° |
| 2026-05-07 11:22 | 52.17003 | 20.95227 | 541 ft | 165 kts | 296° |
| 2026-05-07 11:22 | 52.17479 | 20.93574 | 1539 ft | 164 kts | 290° |
| 2026-05-07 11:23 | 52.17975 | 20.91799 | 2208 ft | 178 kts | 290° |
| 2026-05-07 11:23 | 52.18186 | 20.89903 | 3045 ft | 166 kts | 258° |
| 2026-05-07 11:23 | 52.17933 | 20.88020 | 3729 ft | 171 kts | 254° |
| 2026-05-07 11:23 | 52.17661 | 20.85996 | 4112 ft | 195 kts | 256° |
| 2026-05-07 11:24 | 52.17367 | 20.83763 | 4479 ft | 208 kts | 255° |
| 2026-05-07 11:24 | 52.17037 | 20.81319 | 4775 ft | 225 kts | 255° |
| 2026-05-07 11:24 | 52.16702 | 20.78808 | 5328 ft | 234 kts | 256° |
| 2026-05-07 11:24 | 52.16201 | 20.76175 | 5613 ft | 254 kts | 237° |
| 2026-05-07 11:25 | 52.14875 | 20.74221 | 6192 ft | 265 kts | 206° |
| 2026-05-07 11:25 | 52.13145 | 20.73243 | 7113 ft | 261 kts | 199° |
| 2026-05-07 11:25 | 52.11409 | 20.72423 | 8040 ft | 258 kts | 198° |
| 2026-05-07 11:25 | 52.09671 | 20.71635 | 8728 ft | 265 kts | 198° |
| 2026-05-07 11:26 | 52.07870 | 20.70802 | 9390 ft | 270 kts | 199° |
| 2026-05-07 11:26 | 52.06071 | 20.69953 | 10214 ft | 270 kts | 199° |
| 2026-05-07 11:26 | 52.04211 | 20.69035 | 10519 ft | 290 kts | 199° |
| 2026-05-07 11:26 | 52.02207 | 20.68024 | 10701 ft | 313 kts | 199° |
| 2026-05-07 11:27 | 52.00058 | 20.66932 | 10872 ft | 334 kts | 199° |
| 2026-05-07 11:27 | 51.97821 | 20.65794 | 11257 ft | 346 kts | 199° |
| 2026-05-07 11:27 | 51.95519 | 20.64623 | 11934 ft | 348 kts | 199° |
| 2026-05-07 11:27 | 51.93206 | 20.63447 | 12673 ft | 350 kts | 199° |
| 2026-05-07 11:28 | 51.90869 | 20.62258 | 13372 ft | 353 kts | 199° |
| 2026-05-07 11:28 | 51.88515 | 20.61059 | 14013 ft | 356 kts | 199° |
| 2026-05-07 11:28 | 51.86138 | 20.59850 | 14586 ft | 360 kts | 199° |
| 2026-05-07 11:28 | 51.83735 | 20.58627 | 15155 ft | 364 kts | 199° |
| 2026-05-07 11:29 | 51.81303 | 20.57390 | 15742 ft | 367 kts | 199° |
| 2026-05-07 11:29 | 51.78850 | 20.56145 | 16298 ft | 371 kts | 199° |
| 2026-05-07 11:29 | 51.76376 | 20.54889 | 16855 ft | 374 kts | 199° |
| 2026-05-07 11:29 | 51.73912 | 20.53640 | 17401 ft | 378 kts | 199° |
| 2026-05-07 11:30 | 51.71389 | 20.52363 | 17963 ft | 381 kts | 199° |
| 2026-05-07 11:30 | 51.68841 | 20.51076 | 18460 ft | 385 kts | 199° |
| 2026-05-07 11:30 | 51.66279 | 20.49782 | 18970 ft | 387 kts | 199° |
| 2026-05-07 11:30 | 51.63704 | 20.48484 | 19502 ft | 388 kts | 199° |
| 2026-05-07 11:31 | 51.61120 | 20.47182 | 19993 ft | 391 kts | 199° |
| 2026-05-07 11:31 | 51.58512 | 20.45870 | 20495 ft | 393 kts | 199° |
| 2026-05-07 11:31 | 51.55892 | 20.44553 | 21034 ft | 395 kts | 199° |
| 2026-05-07 11:31 | 51.53253 | 20.43228 | 21515 ft | 398 kts | 199° |
| 2026-05-07 11:32 | 51.47927 | 20.40559 | 22422 ft | 403 kts | 199° |
| 2026-05-07 11:32 | 51.45310 | 20.38943 | 22867 ft | 403 kts | 208° |
| 2026-05-07 11:32 | 51.42904 | 20.36629 | 23303 ft | 404 kts | 217° |
| 2026-05-07 11:33 | 51.40673 | 20.33963 | 23703 ft | 406 kts | 217° |
| 2026-05-07 11:33 | 51.38402 | 20.31240 | 24071 ft | 408 kts | 217° |
| 2026-05-07 11:33 | 51.36126 | 20.28520 | 24449 ft | 409 kts | 217° |
| 2026-05-07 11:33 | 51.33839 | 20.25804 | 24831 ft | 410 kts | 217° |
| 2026-05-07 11:34 | 51.31534 | 20.23079 | 25184 ft | 412 kts | 217° |
| 2026-05-07 11:34 | 51.29224 | 20.20360 | 25524 ft | 413 kts | 216° |
| 2026-05-07 11:34 | 51.26902 | 20.17634 | 25869 ft | 415 kts | 216° |
| 2026-05-07 11:34 | 51.24574 | 20.14908 | 26213 ft | 416 kts | 216° |
| 2026-05-07 11:35 | 51.22257 | 20.12199 | 26525 ft | 418 kts | 216° |
| 2026-05-07 11:35 | 51.19909 | 20.09459 | 26845 ft | 419 kts | 216° |
| 2026-05-07 11:35 | 51.17544 | 20.06701 | 27163 ft | 420 kts | 216° |
| 2026-05-07 11:35 | 51.15179 | 20.03948 | 27471 ft | 422 kts | 216° |
| 2026-05-07 11:36 | 51.12805 | 20.01188 | 27755 ft | 424 kts | 216° |
| 2026-05-07 11:36 | 51.11226 | 19.99353 | 27941 ft | 425 kts | 216° |
| 2026-05-07 11:36 | 51.08831 | 19.96574 | 28276 ft | 425 kts | 216° |
| 2026-05-07 11:36 | 51.06451 | 19.93816 | 28749 ft | 422 kts | 216° |
| 2026-05-07 11:37 | 51.03319 | 19.90192 | 29410 ft | 418 kts | 216° |
| 2026-05-07 11:37 | 51.00973 | 19.87481 | 29818 ft | 417 kts | 216° |
| 2026-05-07 11:37 | 50.99390 | 19.85654 | 30051 ft | 416 kts | 215° |
| 2026-05-07 11:37 | 50.97050 | 19.82956 | 30390 ft | 415 kts | 215° |
| 2026-05-07 11:38 | 50.94713 | 19.80265 | 30712 ft | 414 kts | 216° |
| 2026-05-07 11:38 | 50.92385 | 19.77587 | 31007 ft | 414 kts | 216° |
| 2026-05-07 11:38 | 50.90081 | 19.74941 | 31283 ft | 413 kts | 215° |
| 2026-05-07 11:38 | 50.87755 | 19.72273 | 31611 ft | 412 kts | 215° |
| 2026-05-07 11:39 | 50.85447 | 19.69628 | 31927 ft | 411 kts | 216° |
| 2026-05-07 11:39 | 50.83127 | 19.66974 | 32202 ft | 411 kts | 216° |
| 2026-05-07 11:39 | 50.80817 | 19.64334 | 32503 ft | 410 kts | 216° |
| 2026-05-07 11:39 | 50.78504 | 19.61694 | 32828 ft | 408 kts | 216° |
| 2026-05-07 11:40 | 50.76203 | 19.59071 | 33099 ft | 408 kts | 216° |
| 2026-05-07 11:40 | 50.73898 | 19.56447 | 33346 ft | 408 kts | 216° |
| 2026-05-07 11:40 | 50.71624 | 19.53860 | 33638 ft | 407 kts | 216° |
| 2026-05-07 11:40 | 50.69332 | 19.51257 | 33914 ft | 406 kts | 216° |
| 2026-05-07 11:41 | 50.67038 | 19.48654 | 34116 ft | 406 kts | 216° |
| 2026-05-07 11:41 | 50.64744 | 19.46055 | 34293 ft | 407 kts | 216° |
| 2026-05-07 11:41 | 50.62441 | 19.43449 | 34484 ft | 407 kts | 216° |
| 2026-05-07 11:41 | 50.60139 | 19.40848 | 34686 ft | 407 kts | 216° |
| 2026-05-07 11:42 | 50.57840 | 19.38253 | 34873 ft | 407 kts | 216° |
| 2026-05-07 11:42 | 50.55533 | 19.35652 | 35086 ft | 407 kts | 216° |
| 2026-05-07 11:42 | 50.53238 | 19.33067 | 35304 ft | 406 kts | 216° |
| 2026-05-07 11:42 | 50.50936 | 19.30478 | 35503 ft | 406 kts | 216° |
| 2026-05-07 11:43 | 50.48639 | 19.27898 | 35660 ft | 406 kts | 216° |
| 2026-05-07 11:43 | 50.46336 | 19.25314 | 35819 ft | 407 kts | 216° |
| 2026-05-07 11:43 | 50.44031 | 19.22731 | 35929 ft | 407 kts | 216° |
| 2026-05-07 11:44 | 50.39446 | 19.17602 | 35941 ft | 407 kts | 216° |
| 2026-05-07 11:44 | 50.34833 | 19.12455 | 35940 ft | 406 kts | 216° |
| 2026-05-07 11:45 | 50.30240 | 19.07343 | 35938 ft | 404 kts | 216° |
| 2026-05-07 11:45 | 50.25660 | 19.02256 | 35934 ft | 403 kts | 215° |
| 2026-05-07 11:46 | 50.21082 | 18.97185 | 35934 ft | 403 kts | 215° |
| 2026-05-07 11:46 | 50.16513 | 18.92136 | 35926 ft | 403 kts | 215° |
| 2026-05-07 11:47 | 50.11935 | 18.87088 | 35931 ft | 403 kts | 215° |
| 2026-05-07 11:47 | 50.07346 | 18.82040 | 35933 ft | 404 kts | 215° |
| 2026-05-07 11:48 | 50.02751 | 18.76997 | 35934 ft | 405 kts | 215° |
| 2026-05-07 11:48 | 49.98136 | 18.71945 | 35932 ft | 405 kts | 215° |
| 2026-05-07 11:49 | 49.93545 | 18.66930 | 35935 ft | 406 kts | 215° |
| 2026-05-07 11:49 | 49.88913 | 18.61881 | 35937 ft | 407 kts | 215° |
| 2026-05-07 11:50 | 49.84410 | 18.56559 | 35931 ft | 408 kts | 223° |
| 2026-05-07 11:50 | 49.80715 | 18.49862 | 35949 ft | 409 kts | 229° |
| 2026-05-07 11:51 | 49.77172 | 18.43051 | 35939 ft | 408 kts | 229° |
| 2026-05-07 11:51 | 49.73597 | 18.36235 | 35941 ft | 407 kts | 229° |
| 2026-05-07 11:52 | 49.70018 | 18.29456 | 35939 ft | 407 kts | 229° |
| 2026-05-07 11:52 | 49.66437 | 18.22703 | 35944 ft | 406 kts | 229° |
| 2026-05-07 11:53 | 49.62858 | 18.15974 | 35939 ft | 405 kts | 228° |
| 2026-05-07 11:53 | 49.59285 | 18.09272 | 35940 ft | 404 kts | 228° |
| 2026-05-07 11:54 | 49.55711 | 18.02585 | 35945 ft | 404 kts | 228° |
| 2026-05-07 11:54 | 49.52129 | 17.95901 | 35949 ft | 404 kts | 228° |
| 2026-05-07 11:55 | 49.48549 | 17.89236 | 35945 ft | 404 kts | 228° |
| 2026-05-07 11:55 | 49.44988 | 17.82623 | 35954 ft | 404 kts | 228° |
| 2026-05-07 11:56 | 49.41400 | 17.75977 | 35953 ft | 404 kts | 228° |
| 2026-05-07 11:56 | 49.37805 | 17.69335 | 35955 ft | 404 kts | 228° |
| 2026-05-07 11:57 | 49.34199 | 17.62691 | 35957 ft | 405 kts | 228° |
| 2026-05-07 11:57 | 49.30598 | 17.56071 | 35963 ft | 405 kts | 228° |
| 2026-05-07 11:58 | 49.26978 | 17.49433 | 35963 ft | 405 kts | 228° |
| 2026-05-07 11:58 | 49.23360 | 17.42815 | 35962 ft | 406 kts | 228° |
| 2026-05-07 11:59 | 49.19733 | 17.36198 | 35964 ft | 406 kts | 228° |
| 2026-05-07 11:59 | 49.16102 | 17.29589 | 35970 ft | 405 kts | 228° |
| 2026-05-07 12:00 | 49.12497 | 17.23045 | 35970 ft | 405 kts | 228° |
| 2026-05-07 12:00 | 49.08862 | 17.16461 | 35964 ft | 405 kts | 228° |
| 2026-05-07 12:01 | 49.05230 | 17.09901 | 35968 ft | 404 kts | 228° |
| 2026-05-07 12:01 | 49.01602 | 17.03363 | 35965 ft | 403 kts | 228° |
| 2026-05-07 12:02 | 48.97984 | 16.96859 | 35966 ft | 402 kts | 227° |
| 2026-05-07 12:02 | 48.94366 | 16.90372 | 35960 ft | 401 kts | 227° |
| 2026-05-07 12:03 | 48.90758 | 16.83916 | 35970 ft | 400 kts | 227° |
| 2026-05-07 12:03 | 48.87176 | 16.77523 | 35973 ft | 399 kts | 227° |
| 2026-05-07 12:04 | 48.83571 | 16.71102 | 35970 ft | 399 kts | 227° |
| 2026-05-07 12:04 | 48.79771 | 16.64996 | 35962 ft | 397 kts | 216° |
| 2026-05-07 12:05 | 48.74937 | 16.61025 | 35970 ft | 397 kts | 200° |
| 2026-05-07 12:05 | 48.69521 | 16.59139 | 35965 ft | 400 kts | 193° |
| 2026-05-07 12:06 | 48.64093 | 16.57506 | 35966 ft | 401 kts | 193° |
| 2026-05-07 12:06 | 48.58606 | 16.55831 | 35974 ft | 403 kts | 194° |
| 2026-05-07 12:07 | 48.53102 | 16.54122 | 35970 ft | 404 kts | 194° |
| 2026-05-07 12:07 | 48.47585 | 16.52400 | 35971 ft | 406 kts | 194° |
| 2026-05-07 12:08 | 48.42049 | 16.50673 | 35977 ft | 407 kts | 194° |
| 2026-05-07 12:08 | 48.36506 | 16.48947 | 35981 ft | 407 kts | 194° |
| 2026-05-07 12:09 | 48.30946 | 16.47221 | 35984 ft | 408 kts | 194° |
| 2026-05-07 12:09 | 48.25384 | 16.45498 | 35990 ft | 408 kts | 194° |
| 2026-05-07 12:10 | 48.19823 | 16.43778 | 35992 ft | 408 kts | 194° |
| 2026-05-07 12:10 | 48.14272 | 16.42066 | 35993 ft | 407 kts | 194° |
| 2026-05-07 12:11 | 48.08763 | 16.40371 | 35992 ft | 406 kts | 194° |
| 2026-05-07 12:11 | 48.03237 | 16.38674 | 35986 ft | 405 kts | 194° |
| 2026-05-07 12:12 | 47.97723 | 16.36984 | 35987 ft | 404 kts | 194° |
| 2026-05-07 12:12 | 47.92224 | 16.35302 | 35985 ft | 403 kts | 194° |
| 2026-05-07 12:13 | 47.86734 | 16.33627 | 35985 ft | 402 kts | 194° |
| 2026-05-07 12:13 | 47.81252 | 16.31958 | 35990 ft | 402 kts | 194° |
| 2026-05-07 12:14 | 47.75780 | 16.30295 | 35989 ft | 401 kts | 194° |
| 2026-05-07 12:14 | 47.70307 | 16.28636 | 35992 ft | 401 kts | 194° |
| 2026-05-07 12:15 | 47.64823 | 16.26976 | 35982 ft | 402 kts | 194° |
| 2026-05-07 12:15 | 47.59367 | 16.25329 | 35987 ft | 402 kts | 194° |
| 2026-05-07 12:16 | 47.53871 | 16.23673 | 35987 ft | 403 kts | 194° |
| 2026-05-07 12:16 | 47.48375 | 16.22022 | 35979 ft | 403 kts | 194° |
| 2026-05-07 12:17 | 47.42874 | 16.20372 | 35977 ft | 403 kts | 194° |
| 2026-05-07 12:17 | 47.37370 | 16.18724 | 35976 ft | 403 kts | 194° |
| 2026-05-07 12:18 | 47.31896 | 16.17089 | 35979 ft | 403 kts | 194° |
| 2026-05-07 12:18 | 47.26387 | 16.15447 | 35977 ft | 404 kts | 194° |
| 2026-05-07 12:19 | 47.20884 | 16.13810 | 35973 ft | 404 kts | 194° |
| 2026-05-07 12:19 | 47.15374 | 16.12175 | 35971 ft | 404 kts | 194° |
| 2026-05-07 12:20 | 47.09863 | 16.10542 | 35969 ft | 404 kts | 194° |
| 2026-05-07 12:20 | 47.04355 | 16.08914 | 35967 ft | 404 kts | 194° |
| 2026-05-07 12:21 | 46.98789 | 16.07597 | 35978 ft | 405 kts | 190° |
| 2026-05-07 12:21 | 46.93200 | 16.06783 | 35966 ft | 406 kts | 189° |
| 2026-05-07 12:22 | 46.87579 | 16.05979 | 35967 ft | 405 kts | 189° |
| 2026-05-07 12:22 | 46.81970 | 16.05154 | 35971 ft | 405 kts | 189° |
| 2026-05-07 12:23 | 46.76360 | 16.04317 | 35970 ft | 405 kts | 190° |
| 2026-05-07 12:23 | 46.71699 | 16.03622 | 35963 ft | 405 kts | 190° |
| 2026-05-07 12:24 | 46.66096 | 16.02787 | 35967 ft | 404 kts | 190° |
| 2026-05-07 12:24 | 46.60499 | 16.01956 | 35967 ft | 404 kts | 190° |
| 2026-05-07 12:25 | 46.54907 | 16.01126 | 35961 ft | 404 kts | 190° |
| 2026-05-07 12:25 | 46.49322 | 16.00300 | 35969 ft | 403 kts | 190° |
| 2026-05-07 12:26 | 46.43737 | 15.99475 | 35973 ft | 403 kts | 190° |
| 2026-05-07 12:26 | 46.38147 | 15.98651 | 35975 ft | 404 kts | 190° |
| 2026-05-07 12:27 | 46.32560 | 15.97828 | 35974 ft | 404 kts | 191° |
| 2026-05-07 12:27 | 46.27166 | 15.96096 | 35979 ft | 399 kts | 199° |
| 2026-05-07 12:28 | 46.21838 | 15.93847 | 35981 ft | 399 kts | 199° |
| 2026-05-07 12:28 | 46.16494 | 15.91613 | 35988 ft | 400 kts | 199° |
| 2026-05-07 12:29 | 46.11133 | 15.89394 | 35981 ft | 401 kts | 199° |
| 2026-05-07 12:29 | 46.05760 | 15.87180 | 35996 ft | 401 kts | 199° |
| 2026-05-07 12:30 | 46.00382 | 15.84973 | 35990 ft | 402 kts | 199° |
| 2026-05-07 12:30 | 45.95002 | 15.82769 | 35993 ft | 402 kts | 199° |
| 2026-05-07 12:31 | 45.89618 | 15.80568 | 35991 ft | 402 kts | 200° |
| 2026-05-07 12:31 | 45.84232 | 15.78370 | 35993 ft | 402 kts | 200° |
| 2026-05-07 12:32 | 45.78845 | 15.76176 | 35991 ft | 402 kts | 200° |
| 2026-05-07 12:32 | 45.73488 | 15.73999 | 35995 ft | 403 kts | 200° |
| 2026-05-07 12:33 | 45.65393 | 15.70716 | 36003 ft | 403 kts | 200° |
| 2026-05-07 12:33 | 45.59998 | 15.68535 | 35997 ft | 403 kts | 200° |
| 2026-05-07 12:34 | 45.54637 | 15.66371 | 35993 ft | 403 kts | 200° |
| 2026-05-07 12:34 | 45.49245 | 15.64199 | 35993 ft | 403 kts | 200° |
| 2026-05-07 12:35 | 45.43845 | 15.62028 | 35989 ft | 403 kts | 200° |
| 2026-05-07 12:35 | 45.38450 | 15.59863 | 35991 ft | 403 kts | 200° |
| 2026-05-07 12:36 | 45.33039 | 15.57696 | 35993 ft | 403 kts | 200° |
| 2026-05-07 12:36 | 45.27630 | 15.55534 | 35990 ft | 404 kts | 200° |
| 2026-05-07 12:37 | 45.22208 | 15.53372 | 35979 ft | 405 kts | 200° |
| 2026-05-07 12:37 | 45.16815 | 15.51226 | 35994 ft | 405 kts | 200° |
| 2026-05-07 12:38 | 45.11389 | 15.49070 | 35994 ft | 405 kts | 200° |
| 2026-05-07 12:38 | 45.05950 | 15.46913 | 35989 ft | 406 kts | 200° |
| 2026-05-07 12:39 | 45.00508 | 15.44759 | 35988 ft | 407 kts | 200° |
| 2026-05-07 12:39 | 44.95056 | 15.42607 | 35999 ft | 406 kts | 200° |
| 2026-05-07 12:40 | 44.89603 | 15.40457 | 36008 ft | 407 kts | 200° |
| 2026-05-07 12:40 | 44.84134 | 15.38306 | 36002 ft | 408 kts | 200° |
| 2026-05-07 12:41 | 44.78658 | 15.36156 | 36005 ft | 409 kts | 200° |
| 2026-05-07 12:41 | 44.73174 | 15.34007 | 36002 ft | 409 kts | 200° |
| 2026-05-07 12:42 | 44.67689 | 15.31863 | 36013 ft | 409 kts | 200° |
| 2026-05-07 12:42 | 44.62233 | 15.29733 | 36013 ft | 409 kts | 200° |
| 2026-05-07 12:43 | 44.56745 | 15.27596 | 36017 ft | 409 kts | 200° |
| 2026-05-07 12:43 | 44.51254 | 15.25461 | 36012 ft | 410 kts | 200° |
| 2026-05-07 12:44 | 44.45763 | 15.23331 | 36026 ft | 409 kts | 200° |
| 2026-05-07 12:44 | 44.40266 | 15.21202 | 36010 ft | 410 kts | 200° |
| 2026-05-07 12:45 | 44.34763 | 15.19075 | 36022 ft | 410 kts | 200° |
| 2026-05-07 12:45 | 44.29252 | 15.16949 | 36018 ft | 411 kts | 200° |
| 2026-05-07 12:46 | 44.23742 | 15.14828 | 36020 ft | 410 kts | 200° |
| 2026-05-07 12:46 | 44.18269 | 15.12725 | 36031 ft | 412 kts | 200° |
| 2026-05-07 12:47 | 44.12701 | 15.10589 | 36014 ft | 412 kts | 200° |
| 2026-05-07 12:47 | 44.07201 | 15.08484 | 36013 ft | 412 kts | 200° |
| 2026-05-07 12:48 | 44.01667 | 15.06371 | 36013 ft | 412 kts | 200° |
| 2026-05-07 12:48 | 43.96133 | 15.04261 | 36011 ft | 413 kts | 200° |
| 2026-05-07 12:49 | 43.90592 | 15.02152 | 36020 ft | 413 kts | 200° |
| 2026-05-07 12:49 | 43.85045 | 15.00045 | 36018 ft | 413 kts | 200° |
| 2026-05-07 12:50 | 43.79506 | 14.97946 | 36018 ft | 413 kts | 200° |
| 2026-05-07 12:50 | 43.73962 | 14.95848 | 36016 ft | 413 kts | 200° |
| 2026-05-07 12:51 | 43.68442 | 14.93764 | 36017 ft | 413 kts | 201° |
| 2026-05-07 12:51 | 43.62891 | 14.91671 | 36018 ft | 414 kts | 201° |
| 2026-05-07 12:52 | 43.57335 | 14.89581 | 36019 ft | 414 kts | 201° |
| 2026-05-07 12:52 | 43.51770 | 14.87491 | 36017 ft | 414 kts | 201° |
| 2026-05-07 12:53 | 43.46195 | 14.85402 | 36019 ft | 415 kts | 201° |
| 2026-05-07 12:53 | 43.40649 | 14.83327 | 36014 ft | 415 kts | 201° |
| 2026-05-07 12:54 | 43.35058 | 14.81239 | 36013 ft | 416 kts | 201° |
| 2026-05-07 12:54 | 43.29583 | 14.78792 | 36036 ft | 412 kts | 211° |
| 2026-05-07 12:55 | 43.27017 | 14.77019 | 36192 ft | 411 kts | 212° |
| 2026-05-07 12:55 | 43.24466 | 14.75230 | 36416 ft | 410 kts | 212° |
| 2026-05-07 12:55 | 43.21958 | 14.73469 | 36606 ft | 410 kts | 212° |
| 2026-05-07 12:55 | 43.19417 | 14.71691 | 36748 ft | 411 kts | 212° |
| 2026-05-07 12:56 | 43.16867 | 14.69915 | 36914 ft | 411 kts | 212° |
| 2026-05-07 12:56 | 43.14320 | 14.68150 | 37005 ft | 412 kts | 212° |
| 2026-05-07 12:56 | 43.09185 | 14.64607 | 37008 ft | 413 kts | 212° |
| 2026-05-07 12:57 | 43.04054 | 14.61084 | 37004 ft | 411 kts | 212° |
| 2026-05-07 12:57 | 42.98952 | 14.57587 | 37008 ft | 409 kts | 212° |
| 2026-05-07 12:58 | 42.93868 | 14.54108 | 37010 ft | 408 kts | 212° |
| 2026-05-07 12:58 | 42.88792 | 14.50640 | 37009 ft | 407 kts | 212° |
| 2026-05-07 12:59 | 42.83723 | 14.47182 | 37011 ft | 407 kts | 212° |
| 2026-05-07 12:59 | 42.78652 | 14.43730 | 37011 ft | 408 kts | 212° |
| 2026-05-07 13:00 | 42.73602 | 14.40298 | 37012 ft | 408 kts | 212° |
| 2026-05-07 13:00 | 42.68509 | 14.36844 | 37015 ft | 409 kts | 212° |
| 2026-05-07 13:01 | 42.63411 | 14.33393 | 37018 ft | 410 kts | 212° |
| 2026-05-07 13:01 | 42.58297 | 14.29938 | 37018 ft | 410 kts | 212° |
| 2026-05-07 13:02 | 42.53172 | 14.26482 | 37020 ft | 411 kts | 212° |
| 2026-05-07 13:02 | 42.48057 | 14.23039 | 37018 ft | 410 kts | 212° |
| 2026-05-07 13:03 | 42.42948 | 14.19606 | 37022 ft | 410 kts | 212° |
| 2026-05-07 13:03 | 42.37873 | 14.16202 | 37019 ft | 409 kts | 212° |
| 2026-05-07 13:04 | 42.32768 | 14.12785 | 37018 ft | 409 kts | 212° |
| 2026-05-07 13:04 | 42.27672 | 14.09379 | 37010 ft | 408 kts | 212° |
| 2026-05-07 13:05 | 42.22592 | 14.05990 | 37010 ft | 406 kts | 212° |
| 2026-05-07 13:05 | 42.17519 | 14.02613 | 37005 ft | 406 kts | 212° |
| 2026-05-07 13:06 | 42.12457 | 13.99248 | 36990 ft | 405 kts | 212° |
| 2026-05-07 13:06 | 42.07425 | 13.95907 | 37006 ft | 403 kts | 213° |
| 2026-05-07 13:07 | 42.02397 | 13.92578 | 37003 ft | 402 kts | 213° |
| 2026-05-07 13:07 | 41.97374 | 13.89258 | 36922 ft | 399 kts | 213° |
| 2026-05-07 13:08 | 41.94906 | 13.87630 | 37059 ft | 394 kts | 213° |
| 2026-05-07 13:08 | 41.92448 | 13.86006 | 36993 ft | 400 kts | 213° |
| 2026-05-07 13:08 | 41.87419 | 13.82687 | 37011 ft | 405 kts | 213° |
| 2026-05-07 13:09 | 41.82329 | 13.79336 | 37002 ft | 409 kts | 213° |
| 2026-05-07 13:09 | 41.77220 | 13.75986 | 36975 ft | 405 kts | 213° |
| 2026-05-07 13:10 | 41.72207 | 13.72711 | 36984 ft | 398 kts | 213° |
| 2026-05-07 13:10 | 41.67269 | 13.69482 | 36991 ft | 396 kts | 214° |
| 2026-05-07 13:11 | 41.62346 | 13.66267 | 36998 ft | 392 kts | 214° |
| 2026-05-07 13:11 | 41.57455 | 13.63075 | 37020 ft | 391 kts | 214° |
| 2026-05-07 13:12 | 41.53366 | 13.60409 | 37009 ft | 396 kts | 214° |
| 2026-05-07 13:12 | 41.48376 | 13.57160 | 36999 ft | 400 kts | 214° |
| 2026-05-07 13:13 | 41.43359 | 13.53906 | 37000 ft | 402 kts | 215° |
| 2026-05-07 13:13 | 41.38313 | 13.50639 | 36976 ft | 403 kts | 215° |
| 2026-05-07 13:14 | 41.33310 | 13.47410 | 36982 ft | 395 kts | 215° |
| 2026-05-07 13:14 | 41.28383 | 13.44236 | 36978 ft | 392 kts | 216° |
| 2026-05-07 13:15 | 41.23553 | 13.41122 | 36971 ft | 390 kts | 216° |
| 2026-05-07 13:15 | 41.18719 | 13.38011 | 36972 ft | 388 kts | 216° |
| 2026-05-07 13:16 | 41.13871 | 13.34896 | 36978 ft | 387 kts | 216° |
| 2026-05-07 13:16 | 41.09023 | 13.31785 | 36987 ft | 387 kts | 216° |
| 2026-05-07 13:17 | 41.04160 | 13.28668 | 36989 ft | 389 kts | 216° |
| 2026-05-07 13:17 | 40.99276 | 13.25546 | 36987 ft | 390 kts | 216° |
| 2026-05-07 13:18 | 40.94363 | 13.22410 | 36981 ft | 392 kts | 216° |
| 2026-05-07 13:18 | 40.89436 | 13.19272 | 36977 ft | 394 kts | 216° |
| 2026-05-07 13:19 | 40.84488 | 13.16126 | 36983 ft | 395 kts | 217° |
| 2026-05-07 13:19 | 40.79561 | 13.12999 | 36967 ft | 395 kts | 217° |
| 2026-05-07 13:20 | 40.74602 | 13.09858 | 36982 ft | 395 kts | 217° |
| 2026-05-07 13:20 | 40.69663 | 13.06735 | 36977 ft | 393 kts | 217° |
| 2026-05-07 13:21 | 40.64746 | 13.03631 | 36976 ft | 391 kts | 217° |
| 2026-05-07 13:21 | 40.59854 | 13.00548 | 36974 ft | 388 kts | 217° |
| 2026-05-07 13:22 | 40.55001 | 12.97493 | 36971 ft | 385 kts | 217° |
| 2026-05-07 13:22 | 40.50210 | 12.94481 | 36974 ft | 383 kts | 217° |
| 2026-05-07 13:23 | 40.45411 | 12.91469 | 36974 ft | 380 kts | 217° |
| 2026-05-07 13:23 | 40.40645 | 12.88481 | 36973 ft | 378 kts | 217° |
| 2026-05-07 13:24 | 40.35924 | 12.85527 | 36973 ft | 377 kts | 217° |
| 2026-05-07 13:24 | 40.31196 | 12.82572 | 36970 ft | 376 kts | 217° |
| 2026-05-07 13:25 | 40.26465 | 12.79620 | 36971 ft | 375 kts | 217° |
| 2026-05-07 13:25 | 40.21748 | 12.76682 | 36968 ft | 375 kts | 217° |
| 2026-05-07 13:26 | 40.17039 | 12.73753 | 36966 ft | 375 kts | 217° |
| 2026-05-07 13:26 | 40.12354 | 12.70845 | 36962 ft | 374 kts | 217° |
| 2026-05-07 13:27 | 40.07648 | 12.67927 | 36963 ft | 374 kts | 217° |
| 2026-05-07 13:27 | 40.02950 | 12.65020 | 36962 ft | 373 kts | 217° |
| 2026-05-07 13:28 | 39.98262 | 12.62123 | 36956 ft | 373 kts | 217° |
| 2026-05-07 13:28 | 39.93574 | 12.59230 | 36962 ft | 372 kts | 217° |
| 2026-05-07 13:29 | 39.88900 | 12.56351 | 36951 ft | 371 kts | 217° |
| 2026-05-07 13:29 | 39.84239 | 12.53484 | 36953 ft | 370 kts | 217° |
| 2026-05-07 13:30 | 39.79578 | 12.50621 | 36951 ft | 369 kts | 217° |
| 2026-05-07 13:30 | 39.74930 | 12.47770 | 36951 ft | 369 kts | 217° |
| 2026-05-07 13:31 | 39.70297 | 12.44933 | 36945 ft | 368 kts | 217° |
| 2026-05-07 13:31 | 39.65694 | 12.42118 | 36946 ft | 367 kts | 217° |
| 2026-05-07 13:32 | 39.61066 | 12.39292 | 36940 ft | 367 kts | 217° |
| 2026-05-07 13:32 | 39.56439 | 12.36470 | 36943 ft | 367 kts | 217° |
| 2026-05-07 13:33 | 39.51807 | 12.33650 | 36935 ft | 367 kts | 217° |
| 2026-05-07 13:33 | 39.47180 | 12.30837 | 36936 ft | 368 kts | 216° |
| 2026-05-07 13:34 | 39.40225 | 12.26616 | 36935 ft | 368 kts | 216° |
| 2026-05-07 13:35 | 39.35608 | 12.23820 | 36940 ft | 369 kts | 216° |
| 2026-05-07 13:35 | 39.30953 | 12.21005 | 36930 ft | 369 kts | 216° |
| 2026-05-07 13:36 | 39.26289 | 12.18189 | 36927 ft | 370 kts | 216° |
| 2026-05-07 13:36 | 39.21621 | 12.15373 | 36927 ft | 371 kts | 216° |
| 2026-05-07 13:37 | 39.16942 | 12.12556 | 36924 ft | 371 kts | 216° |
| 2026-05-07 13:37 | 39.12284 | 12.09756 | 36922 ft | 372 kts | 215° |
| 2026-05-07 13:38 | 39.07586 | 12.06936 | 36922 ft | 373 kts | 215° |
| 2026-05-07 13:38 | 39.02877 | 12.04113 | 36916 ft | 373 kts | 215° |
| 2026-05-07 13:39 | 38.98164 | 12.01292 | 36918 ft | 374 kts | 215° |
| 2026-05-07 13:39 | 38.93439 | 11.98468 | 36919 ft | 375 kts | 215° |
| 2026-05-07 13:40 | 38.88701 | 11.95640 | 36915 ft | 376 kts | 215° |
| 2026-05-07 13:40 | 38.83950 | 11.92810 | 36917 ft | 377 kts | 215° |
| 2026-05-07 13:41 | 38.79193 | 11.89979 | 36920 ft | 377 kts | 214° |
| 2026-05-07 13:41 | 38.74454 | 11.87163 | 36917 ft | 378 kts | 214° |
| 2026-05-07 13:42 | 38.69672 | 11.84327 | 36919 ft | 379 kts | 214° |
| 2026-05-07 13:42 | 38.64876 | 11.81485 | 36912 ft | 380 kts | 214° |
| 2026-05-07 13:43 | 38.60078 | 11.78647 | 36912 ft | 380 kts | 214° |
| 2026-05-07 13:43 | 38.55267 | 11.75806 | 36907 ft | 381 kts | 214° |
| 2026-05-07 13:44 | 38.50458 | 11.72971 | 36914 ft | 381 kts | 214° |
| 2026-05-07 13:44 | 38.45677 | 11.70155 | 36911 ft | 381 kts | 214° |
| 2026-05-07 13:45 | 38.40834 | 11.67307 | 36914 ft | 381 kts | 214° |
| 2026-05-07 13:45 | 38.36045 | 11.64496 | 36905 ft | 381 kts | 214° |
| 2026-05-07 13:46 | 38.31228 | 11.61672 | 36910 ft | 381 kts | 214° |
| 2026-05-07 13:46 | 38.26400 | 11.58845 | 36911 ft | 381 kts | 214° |
| 2026-05-07 13:47 | 38.21587 | 11.56032 | 36911 ft | 380 kts | 214° |
| 2026-05-07 13:47 | 38.16777 | 11.53224 | 36907 ft | 380 kts | 214° |
| 2026-05-07 13:48 | 38.11967 | 11.50420 | 36906 ft | 380 kts | 214° |
| 2026-05-07 13:48 | 38.07189 | 11.47638 | 36910 ft | 380 kts | 214° |
| 2026-05-07 13:49 | 38.02381 | 11.44843 | 36905 ft | 380 kts | 214° |
| 2026-05-07 13:49 | 37.97569 | 11.42050 | 36905 ft | 380 kts | 214° |
| 2026-05-07 13:50 | 37.92707 | 11.39362 | 36903 ft | 386 kts | 209° |
| 2026-05-07 13:50 | 37.87408 | 11.37682 | 36898 ft | 394 kts | 204° |
| 2026-05-07 13:51 | 37.82073 | 11.36136 | 36903 ft | 393 kts | 204° |
| 2026-05-07 13:51 | 37.79397 | 11.35350 | 36702 ft | 396 kts | 204° |
| 2026-05-07 13:51 | 37.76716 | 11.34557 | 36439 ft | 395 kts | 204° |
| 2026-05-07 13:51 | 37.74055 | 11.33771 | 36172 ft | 391 kts | 204° |
| 2026-05-07 13:52 | 37.71455 | 11.33005 | 35914 ft | 385 kts | 204° |
| 2026-05-07 13:52 | 37.68860 | 11.32238 | 35656 ft | 381 kts | 204° |
| 2026-05-07 13:52 | 37.66282 | 11.31471 | 35408 ft | 379 kts | 204° |
| 2026-05-07 13:52 | 37.63717 | 11.30710 | 35159 ft | 377 kts | 204° |
| 2026-05-07 13:53 | 37.61170 | 11.29956 | 34916 ft | 375 kts | 204° |
| 2026-05-07 13:53 | 37.58633 | 11.29206 | 34670 ft | 374 kts | 203° |
| 2026-05-07 13:53 | 37.56105 | 11.28459 | 34430 ft | 372 kts | 203° |
| 2026-05-07 13:53 | 37.53586 | 11.27714 | 34189 ft | 371 kts | 203° |
| 2026-05-07 13:54 | 37.51086 | 11.26976 | 33871 ft | 366 kts | 203° |
| 2026-05-07 13:54 | 37.48619 | 11.26249 | 33461 ft | 362 kts | 202° |
| 2026-05-07 13:54 | 37.46178 | 11.25529 | 33077 ft | 358 kts | 202° |
| 2026-05-07 13:54 | 37.43766 | 11.24818 | 32669 ft | 354 kts | 202° |
| 2026-05-07 13:55 | 37.41373 | 11.24112 | 32291 ft | 351 kts | 202° |
| 2026-05-07 13:55 | 37.39014 | 11.23411 | 31922 ft | 357 kts | 202° |
| 2026-05-07 13:55 | 37.36578 | 11.22686 | 31541 ft | 360 kts | 201° |
| 2026-05-07 13:55 | 37.34145 | 11.21968 | 31147 ft | 357 kts | 201° |
| 2026-05-07 13:56 | 37.31731 | 11.21260 | 30756 ft | 354 kts | 201° |
| 2026-05-07 13:56 | 37.29341 | 11.20559 | 30379 ft | 351 kts | 200° |
| 2026-05-07 13:56 | 37.26969 | 11.19863 | 30010 ft | 349 kts | 200° |
| 2026-05-07 13:56 | 37.24614 | 11.19171 | 29575 ft | 346 kts | 200° |
| 2026-05-07 13:57 | 37.22276 | 11.18486 | 29153 ft | 343 kts | 200° |
| 2026-05-07 13:57 | 37.19963 | 11.17808 | 28777 ft | 340 kts | 200° |
| 2026-05-07 13:57 | 37.17668 | 11.17135 | 28369 ft | 337 kts | 200° |
| 2026-05-07 13:57 | 37.15382 | 11.16463 | 27990 ft | 339 kts | 200° |
| 2026-05-07 13:58 | 37.13065 | 11.15780 | 27605 ft | 344 kts | 200° |
| 2026-05-07 13:58 | 37.10740 | 11.15098 | 27212 ft | 343 kts | 200° |
| 2026-05-07 13:58 | 37.08446 | 11.14428 | 26824 ft | 340 kts | 200° |
| 2026-05-07 13:58 | 37.06154 | 11.13760 | 26441 ft | 337 kts | 200° |
| 2026-05-07 13:59 | 37.03873 | 11.13095 | 26060 ft | 335 kts | 200° |
| 2026-05-07 13:59 | 37.01615 | 11.12435 | 25684 ft | 333 kts | 200° |
| 2026-05-07 13:59 | 36.99364 | 11.11778 | 25314 ft | 331 kts | 200° |
| 2026-05-07 13:59 | 36.97123 | 11.11123 | 24939 ft | 331 kts | 200° |
| 2026-05-07 14:00 | 36.95638 | 11.10689 | 24689 ft | 331 kts | 200° |
| 2026-05-07 14:00 | 36.93393 | 11.10035 | 24302 ft | 330 kts | 200° |
| 2026-05-07 14:00 | 36.91152 | 11.09382 | 23910 ft | 331 kts | 200° |
| 2026-05-07 14:00 | 36.88906 | 11.08725 | 23537 ft | 332 kts | 200° |
| 2026-05-07 14:01 | 36.85925 | 11.07812 | 22933 ft | 332 kts | 200° |
| 2026-05-07 14:01 | 36.83690 | 11.07117 | 22534 ft | 330 kts | 200° |
| 2026-05-07 14:01 | 36.82186 | 11.06649 | 22275 ft | 329 kts | 200° |
| 2026-05-07 14:01 | 36.79976 | 11.05964 | 21886 ft | 326 kts | 200° |
| 2026-05-07 14:02 | 36.77778 | 11.05284 | 21518 ft | 324 kts | 200° |
| 2026-05-07 14:02 | 36.75596 | 11.04611 | 21148 ft | 322 kts | 200° |
| 2026-05-07 14:02 | 36.73429 | 11.03943 | 20785 ft | 319 kts | 200° |
| 2026-05-07 14:02 | 36.71309 | 11.03291 | 20432 ft | 317 kts | 200° |
| 2026-05-07 14:03 | 36.69171 | 11.02639 | 20076 ft | 315 kts | 200° |
| 2026-05-07 14:03 | 36.67046 | 11.02000 | 19715 ft | 314 kts | 200° |
| 2026-05-07 14:03 | 36.64931 | 11.01366 | 19366 ft | 312 kts | 200° |
| 2026-05-07 14:03 | 36.62824 | 11.00736 | 19013 ft | 311 kts | 200° |
| 2026-05-07 14:04 | 36.60722 | 11.00106 | 18640 ft | 310 kts | 200° |
| 2026-05-07 14:04 | 36.58625 | 10.99478 | 18290 ft | 309 kts | 199° |
| 2026-05-07 14:04 | 36.56530 | 10.98850 | 17884 ft | 309 kts | 199° |
| 2026-05-07 14:04 | 36.54445 | 10.98226 | 17511 ft | 307 kts | 199° |
| 2026-05-07 14:05 | 36.52401 | 10.97495 | 16893 ft | 307 kts | 209° |
| 2026-05-07 14:05 | 36.50569 | 10.96165 | 16391 ft | 304 kts | 220° |
| 2026-05-07 14:05 | 36.48904 | 10.94544 | 15981 ft | 303 kts | 222° |
| 2026-05-07 14:05 | 36.47266 | 10.92902 | 15582 ft | 302 kts | 223° |
| 2026-05-07 14:06 | 36.45658 | 10.91285 | 15224 ft | 300 kts | 222° |
| 2026-05-07 14:06 | 36.44034 | 10.89658 | 14856 ft | 299 kts | 222° |
| 2026-05-07 14:06 | 36.42419 | 10.88047 | 14500 ft | 297 kts | 222° |
| 2026-05-07 14:06 | 36.40807 | 10.86444 | 14129 ft | 296 kts | 222° |
| 2026-05-07 14:07 | 36.39196 | 10.84847 | 13783 ft | 295 kts | 222° |
| 2026-05-07 14:07 | 36.37595 | 10.83262 | 13393 ft | 294 kts | 222° |
| 2026-05-07 14:07 | 36.36001 | 10.81686 | 13023 ft | 292 kts | 222° |
| 2026-05-07 14:07 | 36.34411 | 10.80116 | 12658 ft | 290 kts | 222° |
| 2026-05-07 14:08 | 36.32835 | 10.78561 | 12308 ft | 289 kts | 222° |
| 2026-05-07 14:08 | 36.31271 | 10.77018 | 11971 ft | 287 kts | 222° |
| 2026-05-07 14:08 | 36.29714 | 10.75483 | 11634 ft | 285 kts | 222° |
| 2026-05-07 14:08 | 36.28167 | 10.73959 | 11296 ft | 284 kts | 222° |
| 2026-05-07 14:09 | 36.26628 | 10.72443 | 10970 ft | 282 kts | 221° |
| 2026-05-07 14:09 | 36.25095 | 10.70934 | 10637 ft | 280 kts | 221° |
| 2026-05-07 14:09 | 36.23588 | 10.69450 | 10320 ft | 279 kts | 221° |
| 2026-05-07 14:09 | 36.22080 | 10.67968 | 10157 ft | 272 kts | 221° |
| 2026-05-07 14:10 | 36.20612 | 10.66529 | 10007 ft | 265 kts | 221° |
| 2026-05-07 14:10 | 36.19189 | 10.65134 | 9866 ft | 258 kts | 221° |
| 2026-05-07 14:10 | 36.17916 | 10.63600 | 9562 ft | 253 kts | 236° |
| 2026-05-07 14:10 | 36.16955 | 10.61797 | 9294 ft | 250 kts | 238° |
| 2026-05-07 14:11 | 36.16018 | 10.59987 | 9008 ft | 249 kts | 238° |
| 2026-05-07 14:11 | 36.15086 | 10.58189 | 8726 ft | 247 kts | 238° |
| 2026-05-07 14:11 | 36.14156 | 10.56401 | 8447 ft | 246 kts | 238° |
| 2026-05-07 14:11 | 36.13228 | 10.54623 | 8169 ft | 245 kts | 238° |
| 2026-05-07 14:12 | 36.12302 | 10.52856 | 7893 ft | 244 kts | 238° |
| 2026-05-07 14:12 | 36.11378 | 10.51095 | 7620 ft | 243 kts | 238° |
| 2026-05-07 14:12 | 36.10459 | 10.49346 | 7351 ft | 242 kts | 238° |
| 2026-05-07 14:12 | 36.09535 | 10.47590 | 7090 ft | 245 kts | 238° |
| 2026-05-07 14:13 | 36.08597 | 10.45812 | 6835 ft | 247 kts | 239° |
| 2026-05-07 14:13 | 36.07671 | 10.44054 | 6551 ft | 247 kts | 238° |
| 2026-05-07 14:13 | 36.06834 | 10.42213 | 6333 ft | 244 kts | 246° |
| 2026-05-07 14:13 | 36.06141 | 10.40301 | 6067 ft | 244 kts | 248° |
| 2026-05-07 14:14 | 36.05465 | 10.38367 | 5793 ft | 246 kts | 248° |
| 2026-05-07 14:14 | 36.04779 | 10.36412 | 5516 ft | 250 kts | 248° |
| 2026-05-07 14:14 | 36.04081 | 10.34441 | 5236 ft | 250 kts | 247° |
| 2026-05-07 14:14 | 36.03374 | 10.32466 | 4904 ft | 252 kts | 247° |
| 2026-05-07 14:15 | 36.02657 | 10.30472 | 4558 ft | 255 kts | 247° |
| 2026-05-07 14:15 | 36.01933 | 10.28466 | 4207 ft | 257 kts | 247° |
| 2026-05-07 14:15 | 36.01201 | 10.26447 | 3857 ft | 258 kts | 246° |
| 2026-05-07 14:15 | 36.00466 | 10.24411 | 3516 ft | 260 kts | 249° |
| 2026-05-07 14:16 | 36.00231 | 10.22256 | 3150 ft | 260 kts | 283° |
| 2026-05-07 14:16 | 36.01048 | 10.20319 | 2937 ft | 254 kts | 314° |
| 2026-05-07 14:16 | 36.02363 | 10.18911 | 2788 ft | 247 kts | 326° |
| 2026-05-07 14:16 | 36.03763 | 10.17710 | 2679 ft | 242 kts | 328° |
| 2026-05-07 14:17 | 36.05304 | 10.17053 | 2495 ft | 233 kts | 5° |
| 2026-05-07 14:17 | 36.06732 | 10.17742 | 2460 ft | 216 kts | 45° |
| 2026-05-07 14:17 | 36.07366 | 10.19313 | 2481 ft | 206 kts | 80° |
| 2026-05-07 14:17 | 36.07543 | 10.21033 | 2471 ft | 201 kts | 82° |
| 2026-05-07 14:18 | 36.07672 | 10.22681 | 2302 ft | 197 kts | 86° |
| 2026-05-07 14:18 | 36.07701 | 10.24320 | 2206 ft | 184 kts | 88° |
| 2026-05-07 14:18 | 36.07695 | 10.25862 | 2094 ft | 177 kts | 89° |
| 2026-05-07 14:18 | 36.07683 | 10.27363 | 1995 ft | 170 kts | 88° |
| 2026-05-07 14:19 | 36.07672 | 10.28751 | 1947 ft | 162 kts | 88° |
| 2026-05-07 14:19 | 36.07663 | 10.30147 | 1888 ft | 168 kts | 89° |
| 2026-05-07 14:19 | 36.07653 | 10.31601 | 1702 ft | 168 kts | 90° |
| 2026-05-07 14:19 | 36.07642 | 10.33019 | 1444 ft | 160 kts | 89° |
| 2026-05-07 14:20 | 36.07634 | 10.34335 | 1275 ft | 151 kts | 90° |
| 2026-05-07 14:20 | 36.07625 | 10.35568 | 1070 ft | 151 kts | 89° |
| 2026-05-07 14:20 | 36.07617 | 10.36823 | 856 ft | 143 kts | 89° |
| 2026-05-07 14:20 | 36.07609 | 10.38054 | 676 ft | 144 kts | 90° |
| 2026-05-07 14:21 | 36.07600 | 10.39298 | 510 ft | 142 kts | 88° |
| 2026-05-07 14:21 | 36.07597 | 10.40527 | 330 ft | 145 kts | 90° |
| 2026-05-07 14:21 | 36.07586 | 10.41755 | 134 ft | 140 kts | 89° |
| 2026-05-07 14:21 | 36.07581 | 10.42915 | 29 ft | 125 kts | 90° |
| 2026-05-07 14:22 | 36.07575 | 10.43804 | 29 ft | 82 kts | 90° |
| 2026-05-07 14:22 | 36.07575 | 10.44321 | 29 ft | 46 kts | 90° |
| 2026-05-07 14:22 | 36.07603 | 10.44683 | 31 ft | 39 kts | 70° |
| 2026-05-07 14:22 | 36.07693 | 10.44853 | 28 ft | 17 kts | 12° |
| 2026-05-07 14:23 | 36.07744 | 10.44748 | 29 ft | 16 kts | 270° |
| 2026-05-07 14:23 | 36.07774 | 10.44630 | 28 ft | 16 kts | 345° |
| 2026-05-07 14:23 | 36.07881 | 10.44627 | 28 ft | 15 kts | 0° |
| 2026-05-07 14:23 | 36.07983 | 10.44628 | 27 ft | 14 kts | 0° |
| 2026-05-07 14:24 | 36.08068 | 10.44602 | 27 ft | 11 kts | 306° |
| 2026-05-07 14:24 | 36.08108 | 10.44526 | 23 ft | 11 kts | 316° |
| 2026-05-07 14:24 | 36.08164 | 10.44459 | 22 ft | 11 kts | 315° |
| 2026-05-07 14:24 | 36.08216 | 10.44381 | 20 ft | 12 kts | 303° |
| 2026-05-07 14:25 | 36.08242 | 10.44284 | 19 ft | 12 kts | 285° |
| 2026-05-07 14:25 | 36.08271 | 10.44187 | 16 ft | 9 kts | 290° |
| 2026-05-07 14:25 | 36.08271 | 10.44154 | 15 ft | 3 kts | 253° |
| 2026-05-07 14:25 | 36.08268 | 10.44129 | 15 ft | 3 kts | 273° |
| 2026-05-07 14:26 | 36.08276 | 10.44109 | 17 ft | 0 kts | 307° |